South Milford, IN (46786)

4:40 AM EST on December 03, 2016 (GMT -0500)
Adams Lake | | Change Station

Elev 955 ft 41.56 °N, 85.32 °W | Updated 28 seconds ago

Overcast
Overcast
35.1 °F
Feels Like 35 °F
N
3.0
Wind Variable Wind from WSW

Today
High -- | Low -- °F
--% Chance of Precip.
Yesterday
High -- | Low -- °F
Precip. -- in
Pressure 30.27 in
Visibility 10.0 miles
Clouds Overcast 3300 ft
Windchill 35 °F
Dew Point 28 °F
Humidity 75%
Rainfall 0.00 in
Snow Depth Not available.
7:50 AM 5:11 PM
Waxing Crescent, 14% visible
METAR KANQ 030915Z AUTO 27004KT 10SM OVC033 02/M02 A3027 RMK
Pressure 30.27 in
Visibility 10.0 miles
Clouds Overcast 3300 ft
Windchill 35 °F
Dew Point 28 °F
Humidity 75%
Rainfall 0.00 in
Snow Depth Not available.
7:50 AM 5:11 PM
Waxing Crescent, 14% visible
METAR KANQ 030915Z AUTO 27004KT 10SM OVC033 02/M02 A3027 RMK

10-Day Weather Forecast

Almanac

Astronomy

Dec. 03, 2016 Rise Set
Actual Time
Civil Twilight
Nautical Twilight
Astronomical Twilight
Moon
Length of Visible Light
Length of Day
Tomorrow will be .
, % of the Moon is Illuminated

Today's Extremes

State Highs State Lows

Community

WunderPhotos

Upload Photos

1,955,434 photos uploaded!

WunderBlog® & News

Nearby

Air Quality

  Air Quality AQ Index Pollutant
Not available.

Snow Depth

Station Depth Elevation

Earthquake Activity

City Distance Mag. Time & Date
Minimum magnitude displayed is 2.5.

Coastal Water Temperatures

Place Temperature

Stations

Nearby Weather Stations

Station Location Temp. Windchill Dew Point Humidity Wind Precip. Elev Updated Type
                   

Watches & Warnings

There are currently no watches in effect.